Du har inga inställningar för hoppväder.nu

Hoppväder.nu

Senast uppdaterat 01:53

UTC-tid

2022-05-23 kl. 23:53


Sol och måne

Solen går upp 3:40 och går ner 22:59 (beräknade cirkatider)
Nästa fullmåne blir om 21 dagar (2022-06-14)


Väderstation: Skydive Mohed

Väderrapport från: 2022/05/24 kl 01:52:56
Vindriktning: 355°
Vinden har varierat mellan 315° och 0° de senaste 10 minuterna.
Vindstyrka: 0,1 m/s
Byvind: 1 m/s
Lufttryck: 1009,5 hPa
Temperatur: 5,4°C, känns som: 3,8°C
Daggpunkt: 2,9°C
Luftfuktighet: 84%
Molnbas: 1017 m




METAR

ESSD (Borlänge)
(1473 minuter sedan)
ESSD 232320Z AUTO 14005KT 120V180 9999 BKN061/// 11/03 Q1009=



ESNN (Sundsvall-Härnösand)
(1473 minuter sedan)
ESNN 232320Z 03003KT CAVOK 04/02 Q1009=












TAF

ESSD (Borlänge)
ESSD



ESNN (Sundsvall-Härnösand)
(203 minuter sedan)
ESNN 232030Z 2321/2401 11004KT CAVOK=





Kodnycklar till TAF och METAR






LHP

(Mohed är område se42e i Delområde 4)

Prognos är inte uppdaterad






Preliminär prognos